Time;durP1;ratioP1;P1;durP2;ratioP2;P2;SDS_P1;SDS_P2;PMS_P1;PMS_P2;Temp;Humidity;BMP_temperature;BMP_pressure;BME280_temperature;BME280_humidity;BME280_pressure;Samples;Min_cycle;Max_cycle;Signal;HPM_P1;HPM_P2
2023/04/10 00:00:19;;;;;;;55.70;32.17;;;;;;;4.89;100.00;101733.94;5058600;28;20037;-80
2023/04/10 00:02:46;;;;;;;56.75;32.92;;;;;;;4.88;100.00;101731.31;5072662;28;20041;-79
2023/04/10 00:05:12;;;;;;;60.15;35.35;;;;;;;4.85;100.00;101737.28;5058683;28;20037;-80
2023/04/10 00:07:39;;;;;;;55.67;31.50;;;;;;;4.81;100.00;101748.41;5064542;28;20048;-80
2023/04/10 00:10:05;;;;;;;59.17;33.70;;;;;;;4.78;100.00;101749.19;5047486;28;20132;-79
2023/04/10 00:12:32;;;;;;;59.05;33.78;;;;;;;4.74;100.00;101744.69;5063068;28;20040;-80
2023/04/10 00:14:58;;;;;;;61.38;35.97;;;;;;;4.72;100.00;101745.47;5066275;28;20404;-80
2023/04/10 00:17:25;;;;;;;63.78;35.97;;;;;;;4.67;100.00;101741.84;5047102;28;20446;-80
2023/04/10 00:19:51;;;;;;;61.17;34.17;;;;;;;4.66;100.00;101742.69;5079822;28;20053;-80
2023/04/10 00:22:18;;;;;;;65.55;36.47;;;;;;;4.65;100.00;101728.84;5064599;28;20132;-79
2023/04/10 00:24:44;;;;;;;61.67;35.53;;;;;;;4.62;100.00;101727.03;5075988;28;20076;-79
2023/04/10 00:27:11;;;;;;;62.70;36.20;;;;;;;4.58;100.00;101727.75;5063651;28;20037;-80
2023/04/10 00:29:37;;;;;;;67.40;36.53;;;;;;;4.55;100.00;101717.28;5040051;28;20398;-80
2023/04/10 00:32:04;;;;;;;55.47;33.15;;;;;;;4.50;100.00;101724.03;5054766;28;20067;-80
2023/04/10 00:34:31;;;;;;;64.03;35.20;;;;;;;4.46;100.00;101712.69;5062386;28;20072;-79
2023/04/10 00:36:59;;;;;;;68.95;35.40;;;;;;;4.43;100.00;101712.59;5089178;28;20110;-79
2023/04/10 00:39:25;;;;;;;67.68;37.70;;;;;;;4.42;100.00;101707.31;5058535;28;20037;-80
2023/04/10 00:41:52;;;;;;;58.88;38.03;;;;;;;4.41;100.00;101710.78;5075782;28;20029;-80
2023/04/10 00:44:21;;;;;;;65.85;35.75;;;;;;;4.38;100.00;101708.97;5067193;28;20124;-80
2023/04/10 00:46:48;;;;;;;65.57;36.17;;;;;;;4.36;100.00;101708.00;5055484;28;20044;-80
2023/04/10 00:49:17;;;;;;;61.42;34.33;;;;;;;4.33;100.00;101704.44;5054790;28;20041;-79
2023/04/10 00:51:44;;;;;;;63.97;37.38;;;;;;;4.30;100.00;101706.09;5054160;28;20040;-80
2023/04/10 00:54:10;;;;;;;62.53;34.75;;;;;;;4.26;100.00;101708.53;5053420;28;20032;-80
2023/04/10 00:56:37;;;;;;;65.47;37.20;;;;;;;4.26;100.00;101708.53;5070350;28;20045;-79
2023/04/10 00:59:04;;;;;;;64.13;35.72;;;;;;;4.21;100.00;101712.66;5054248;28;20033;-79
2023/04/10 01:01:30;;;;;;;66.55;35.38;;;;;;;4.17;100.00;101716.00;5076449;28;20045;-79
2023/04/10 01:03:57;;;;;;;64.93;35.97;;;;;;;4.14;100.00;101717.63;5056609;28;20041;-79
2023/04/10 01:06:49;;;;;;;71.05;37.60;;;;;;;4.13;100.00;101713.31;5055681;28;20048;-79
2023/04/10 01:09:41;;;;;;;64.07;37.63;;;;;;;4.12;100.00;101718.44;5054060;28;20040;-80
2023/04/10 01:12:35;;;;;;;61.70;35.05;;;;;;;4.06;100.00;101715.63;5053118;28;20112;-80
2023/04/10 01:15:14;;;;;;;63.70;38.72;;;;;;;4.02;100.00;101713.75;5053128;28;20044;-79
2023/04/10 01:18:08;;;;;;;62.50;35.67;;;;;;;4.00;100.00;101718.00;5052998;28;20045;-80
2023/04/10 01:20:38;;;;;;;68.35;38.13;;;;;;;3.95;100.00;101716.13;5052735;28;20059;-79
2023/04/10 01:23:38;;;;;;;63.10;36.30;;;;;;;3.93;100.00;101722.09;5053204;28;20040;-80
2023/04/10 01:26:12;;;;;;;60.55;36.58;;;;;;;3.88;100.00;101719.31;5052940;28;20068;-80
2023/04/10 01:28:53;;;;;;;62.58;33.95;;;;;;;3.84;100.00;101714.00;5052874;28;20041;-80
2023/04/10 01:31:42;;;;;;;61.25;33.35;;;;;;;3.81;100.00;101722.53;5069452;28;20041;-80
2023/04/10 01:34:20;;;;;;;58.55;35.38;;;;;;;3.77;100.00;101721.53;5053291;28;20040;-80
2023/04/10 01:36:54;;;;;;;65.00;36.58;;;;;;;3.76;100.00;101718.91;5052386;28;20089;-80
2023/04/10 01:39:23;;;;;;;;;;;;;;;3.75;100.00;101719.72;5052701;28;20044;-79
2023/04/10 01:41:52;;;;;;;66.57;35.25;;;;;;;3.71;100.00;101710.06;5053623;28;19924;-80
2023/04/10 01:44:27;;;;;;;60.05;35.58;;;;;;;3.77;100.00;101712.91;5052366;28;20044;-79
2023/04/10 01:46:56;;;;;;;70.10;37.78;;;;;;;3.76;100.00;101706.81;5052543;28;20116;-79
2023/04/10 01:49:28;;;;;;;70.97;40.25;;;;;;;3.77;100.00;101710.31;5052718;28;20044;-80
2023/04/10 01:51:58;;;;;;;70.50;37.72;;;;;;;3.74;100.00;101705.91;5052846;28;20036;-79
2023/04/10 01:54:31;;;;;;;70.38;39.20;;;;;;;3.72;100.00;101699.75;5056211;28;20047;-79
2023/04/10 01:57:02;;;;;;;61.67;35.55;;;;;;;3.73;100.00;101706.72;5052508;28;20040;-80
2023/04/10 01:59:30;;;;;;;70.80;36.42;;;;;;;3.69;100.00;101693.59;5036174;28;20041;-80
2023/04/10 02:02:01;;;;;;;64.80;33.90;;;;;;;3.66;100.00;101694.34;5036185;28;20037;-80
2023/04/10 02:04:28;;;;;;;69.30;36.53;;;;;;;3.63;100.00;101702.03;5069119;28;20041;-80
2023/04/10 02:07:27;;;;;;;56.33;35.30;;;;;;;3.63;100.00;101694.25;5053862;28;20040;-80
2023/04/10 02:10:04;;;;;;;65.43;34.42;;;;;;;3.61;100.00;101690.72;5052263;28;20455;-80
2023/04/10 02:12:40;;;;;;;68.00;37.33;;;;;;;3.59;100.00;101693.25;5052340;28;20147;-80
2023/04/10 02:15:08;;;;;;;70.40;38.75;;;;;;;3.59;100.00;101695.84;5052011;28;20056;-80
2023/04/10 02:17:36;;;;;;;62.65;35.47;;;;;;;3.58;100.00;101688.91;5052456;28;20025;-80
2023/04/10 02:20:04;;;;;;;63.97;36.15;;;;;;;3.58;100.00;101682.84;5035976;28;20110;-80
2023/04/10 02:22:31;;;;;;;60.47;37.15;;;;;;;3.59;100.00;101679.44;5051974;28;20056;-80
2023/04/10 02:24:58;;;;;;;66.22;36.40;;;;;;;3.57;100.00;101681.09;5069590;28;20033;-80
2023/04/10 02:27:31;;;;;;;69.00;37.85;;;;;;;3.56;100.00;101676.72;5069745;28;20041;-80
2023/04/10 02:29:57;;;;;;;59.78;36.28;;;;;;;3.56;100.00;101676.72;5036534;28;20053;-80
2023/04/10 02:32:24;;;;;;;65.85;37.10;;;;;;;3.53;100.00;101668.84;5036319;28;20474;-80
2023/04/10 02:34:50;;;;;;;63.17;34.00;;;;;;;3.53;100.00;101663.69;5036424;28;20569;-80
2023/04/10 02:37:17;;;;;;;57.90;34.42;;;;;;;3.54;100.00;101666.31;5036657;28;20037;-80
2023/04/10 02:39:43;;;;;;;60.45;33.03;;;;;;;3.52;100.00;101670.56;5036949;28;20045;-80
2023/04/10 02:42:10;;;;;;;56.38;31.50;;;;;;;3.51;100.00;101675.66;5053566;28;20045;-80
2023/04/10 02:44:38;;;;;;;61.83;33.55;;;;;;;3.54;100.00;101668.03;5037713;28;20041;-80
2023/04/10 02:47:05;;;;;;;60.20;33.70;;;;;;;3.57;100.00;101663.84;5054227;28;20120;-80
2023/04/10 02:49:33;;;;;;;57.80;33.28;;;;;;;3.61;100.00;101664.81;5070331;28;20056;-80
2023/04/10 02:52:00;;;;;;;60.40;33.78;;;;;;;3.58;100.00;101659.56;5037857;28;20072;-80
2023/04/10 02:54:27;;;;;;;57.13;33.03;;;;;;;3.57;100.00;101660.38;5054150;28;20043;-80
2023/04/10 02:56:53;;;;;;;61.45;35.25;;;;;;;3.55;100.00;101655.16;5057957;28;20041;-79
2023/04/10 02:59:20;;;;;;;61.53;33.40;;;;;;;3.57;100.00;101655.19;5041182;28;20045;-82
2023/04/10 03:01:47;;;;;;;53.25;32.08;;;;;;;3.54;100.00;101650.78;5056471;28;20055;-79
2023/04/10 03:04:13;;;;;;;56.45;32.80;;;;;;;3.52;100.00;101651.56;5056188;28;20043;-79
2023/04/10 03:06:40;;;;;;;54.75;30.10;;;;;;;3.54;100.00;101657.69;5072160;28;20070;-80
2023/04/10 03:09:06;;;;;;;55.10;31.90;;;;;;;3.54;100.00;101652.50;5057140;28;20063;-80
2023/04/10 03:11:33;;;;;;;60.83;31.50;;;;;;;3.54;100.00;101655.97;5039144;28;20453;-80
2023/04/10 03:13:59;;;;;;;59.47;31.70;;;;;;;3.50;100.00;101656.69;5055489;28;20037;-80
2023/04/10 03:16:26;;;;;;;54.88;32.72;;;;;;;3.47;100.00;101647.09;5056122;28;20147;-80
2023/04/10 03:18:53;;;;;;;54.95;30.00;;;;;;;3.46;100.00;101644.47;5055884;28;20041;-80
2023/04/10 03:21:20;;;;;;;55.65;31.13;;;;;;;3.41;100.00;101644.28;5055322;28;20063;-81
2023/04/10 03:23:46;;;;;;;56.35;32.55;;;;;;;3.36;100.00;101640.63;5055269;28;20051;-79
2023/04/10 03:26:13;;;;;;;54.17;29.50;;;;;;;3.34;100.00;101636.22;5055334;28;20040;-79
2023/04/10 03:28:40;;;;;;;54.45;31.60;;;;;;;3.33;100.00;101632.78;5055364;28;20040;-81
2023/04/10 03:31:06;;;;;;;56.38;29.98;;;;;;;3.30;100.00;101635.25;5055326;28;20332;-81
2023/04/10 03:33:33;;;;;;;56.05;30.08;;;;;;;3.27;100.00;101633.44;5055454;28;20036;-80
2023/04/10 03:35:59;;;;;;;57.58;30.35;;;;;;;3.26;100.00;101639.44;5038243;28;20387;-78
2023/04/10 03:38:26;;;;;;;53.67;29.13;;;;;;;3.23;100.00;101626.38;5056318;28;20059;-80
2023/04/10 03:40:53;;;;;;;48.00;29.55;;;;;;;3.28;100.00;101632.59;5056819;28;20041;-80
2023/04/10 03:43:19;;;;;;;52.38;29.95;;;;;;;3.28;100.00;101626.53;5056364;28;20051;-80
2023/04/10 03:45:46;;;;;;;55.80;29.38;;;;;;;3.25;100.00;101624.72;5055067;28;20043;-79
2023/04/10 03:48:13;;;;;;;52.72;28.17;;;;;;;3.25;100.00;101627.31;5039310;28;20135;-79
2023/04/10 03:50:39;;;;;;;49.60;28.92;;;;;;;3.24;100.00;101629.84;5074421;28;20048;-80
2023/04/10 03:53:06;;;;;;;53.08;28.65;;;;;;;3.24;100.00;101624.69;5055638;28;20094;-79
2023/04/10 03:55:32;;;;;;;53.45;27.58;;;;;;;3.22;100.00;101629.81;5054986;28;20071;-79
2023/04/10 03:58:01;;;;;;;49.15;27.52;;;;;;;3.17;100.00;101621.00;5038704;28;20144;-79
2023/04/10 04:00:27;;;;;;;48.90;27.48;;;;;;;3.14;100.00;101621.75;5057933;28;20114;-80
2023/04/10 04:02:54;;;;;;;46.55;28.20;;;;;;;3.11;100.00;101611.28;5065365;28;20044;-79
2023/04/10 04:05:20;;;;;;;49.60;29.95;;;;;;;3.10;100.00;101614.72;5060503;28;20180;-80
2023/04/10 04:07:47;;;;;;;44.95;27.38;;;;;;;3.10;100.00;101616.41;5038015;28;20132;-80
2023/04/10 04:10:14;;;;;;;50.45;26.75;;;;;;;3.08;100.00;101621.53;5054980;28;20082;-79
2023/04/10 04:12:40;;;;;;;51.50;29.38;;;;;;;3.07;100.00;101617.16;5041172;28;20041;-81
2023/04/10 04:15:08;;;;;;;52.60;27.52;;;;;;;3.11;100.00;101623.34;5060404;28;20089;-79
2023/04/10 04:17:36;;;;;;;46.47;27.23;;;;;;;3.14;100.00;101618.25;5061841;28;20048;-79
2023/04/10 04:20:03;;;;;;;46.67;26.92;;;;;;;3.13;100.00;101619.13;5055028;28;20053;-80
2023/04/10 04:22:30;;;;;;;48.85;28.55;;;;;;;3.08;100.00;101612.88;5054409;28;20132;-80
2023/04/10 04:24:56;;;;;;;48.65;26.98;;;;;;;3.08;100.00;101618.06;5038050;28;20045;-80
2023/04/10 04:27:22;;;;;;;48.30;27.48;;;;;;;3.05;100.00;101610.16;5037615;28;20147;-80
2023/04/10 04:29:49;;;;;;;51.83;27.83;;;;;;;3.05;100.00;101605.91;5059197;28;20463;-80
2023/04/10 04:32:15;;;;;;;46.00;27.20;;;;;;;3.03;100.00;101604.94;5064111;28;20040;-81
2023/04/10 04:34:42;;;;;;;46.72;27.27;;;;;;;3.04;100.00;101614.47;5063143;28;20051;-80
2023/04/10 04:37:08;;;;;;;50.83;28.63;;;;;;;3.05;100.00;101617.94;5059398;28;20533;-80
2023/04/10 04:39:35;;;;;;;43.80;28.05;;;;;;;3.02;100.00;101617.81;5045008;28;20039;-80
2023/04/10 04:42:02;;;;;;;50.08;28.17;;;;;;;3.03;100.00;101611.84;5066379;28;20047;-80
2023/04/10 04:44:28;;;;;;;47.42;27.85;;;;;;;3.04;100.00;101617.06;5048481;28;20041;-80
2023/04/10 04:46:55;;;;;;;49.03;27.10;;;;;;;3.04;100.00;101622.22;5068094;28;20056;-79
2023/04/10 04:49:21;;;;;;;51.28;29.30;;;;;;;3.04;100.00;101614.47;5065387;28;20049;-80
2023/04/10 04:51:47;;;;;;;51.10;29.17;;;;;;;3.03;100.00;101620.47;5048761;28;20037;-80
2023/04/10 04:54:14;;;;;;;47.95;25.52;;;;;;;3.04;100.00;101624.81;5081639;28;20051;-80
2023/04/10 04:56:40;;;;;;;44.53;26.90;;;;;;;3.06;100.00;101628.31;5066654;28;20032;-79
2023/04/10 04:59:07;;;;;;;52.35;29.30;;;;;;;3.07;100.00;101621.47;5064628;28;20428;-81
2023/04/10 05:01:33;;;;;;;48.90;26.30;;;;;;;3.11;100.00;101623.34;5065268;28;20037;-80
2023/04/10 05:04:00;;;;;;;44.15;25.58;;;;;;;3.13;100.00;101624.28;5064593;28;20036;-80
2023/04/10 05:06:28;;;;;;;46.78;27.38;;;;;;;3.21;100.00;101625.44;5063928;28;20060;-80
2023/04/10 05:08:57;;;;;;;47.88;27.83;;;;;;;3.26;100.00;101623.91;5058318;28;20044;-80
2023/04/10 05:11:24;;;;;;;45.30;27.45;;;;;;;3.29;100.00;101620.56;5055349;28;20037;-80
2023/04/10 05:13:50;;;;;;;45.05;26.98;;;;;;;3.34;100.00;101626.78;5055347;28;20527;-79
2023/04/10 05:16:17;;;;;;;46.60;26.40;;;;;;;3.41;100.00;101620.13;5038121;28;20328;-79
2023/04/10 05:18:44;;;;;;;44.08;26.23;;;;;;;3.49;100.00;101621.25;5053542;28;20041;-79
2023/04/10 05:21:10;;;;;;;48.53;25.88;;;;;;;3.57;100.00;101616.34;5053391;28;20102;-79
2023/04/10 05:23:37;;;;;;;51.28;26.52;;;;;;;3.64;100.00;101608.84;5037722;28;20457;-80
2023/04/10 05:26:04;;;;;;;42.88;24.10;;;;;;;3.70;100.00;101613.34;5054525;28;20041;-78
2023/04/10 05:28:31;;;;;;;44.08;24.92;;;;;;;3.77;100.00;101606.72;5054544;28;20083;-79
2023/04/10 05:30:57;;;;;;;40.17;22.77;;;;;;;3.84;100.00;101611.25;5053641;28;20048;-79
2023/04/10 05:33:24;;;;;;;42.42;24.30;;;;;;;3.90;100.00;101614.06;5053854;28;20052;-81
2023/04/10 05:35:53;;;;;;;41.70;24.20;;;;;;;3.97;100.00;101609.97;5036930;28;20045;-81
2023/04/10 05:38:19;;;;;;;44.45;24.58;;;;;;;4.03;100.00;101623.13;5052783;28;20052;-80
2023/04/10 05:40:45;;;;;;;38.97;23.77;;;;;;;4.10;100.00;101619.91;5053488;28;20037;-80
2023/04/10 05:43:12;;;;;;;34.03;21.15;;;;;;;4.17;100.00;101623.56;5052718;28;20033;-81
2023/04/10 05:45:39;;;;;;;35.92;21.85;;;;;;;4.22;100.00;101621.13;5052814;28;20055;-81
2023/04/10 05:48:06;;;;;;;41.80;22.98;;;;;;;4.27;100.00;101628.22;5055903;28;20091;-80
2023/04/10 05:50:32;;;;;;;36.28;22.10;;;;;;;4.33;100.00;101624.97;5053381;28;20040;-79
2023/04/10 05:52:59;;;;;;;38.63;21.77;;;;;;;4.36;100.00;101621.59;5053368;28;20037;-81
2023/04/10 05:55:25;;;;;;;37.72;21.83;;;;;;;4.42;100.00;101625.25;5053656;28;20064;-80
2023/04/10 05:57:52;;;;;;;37.15;21.52;;;;;;;4.50;100.00;101622.00;5053048;28;20037;-80
2023/04/10 06:00:19;;;;;;;37.78;21.67;;;;;;;4.55;100.00;101628.22;5036956;28;20041;-79
2023/04/10 06:02:45;;;;;;;36.00;22.23;;;;;;;4.59;100.00;101619.75;5053388;28;20048;-79
2023/04/10 06:05:12;;;;;;;40.30;22.70;;;;;;;4.66;100.00;101626.84;5054235;28;20045;-80
2023/04/10 06:07:38;;;;;;;35.92;21.90;;;;;;;4.74;100.00;101624.50;5054198;28;20044;-81
2023/04/10 06:10:05;;;;;;;39.95;22.63;;;;;;;4.82;100.00;101623.00;5052779;28;20045;-80
2023/04/10 06:12:32;;;;;;;39.60;23.60;;;;;;;4.89;100.00;101618.88;5035882;28;20041;-80
2023/04/10 06:14:58;;;;;;;40.08;22.48;;;;;;;4.94;100.00;101613.03;5052190;28;20095;-81
2023/04/10 06:17:27;;;;;;;37.13;22.05;;;;;;;4.99;100.00;101613.13;5052470;28;20040;-80
2023/04/10 06:19:55;;;;;;;34.85;21.83;;;;;;;5.05;100.00;101609.84;5052038;28;20061;-80
2023/04/10 06:22:21;;;;;;;37.90;21.35;;;;;;;5.11;100.00;101613.50;5052506;28;20044;-80
2023/04/10 06:24:48;;;;;;;36.20;20.92;;;;;;;5.17;99.54;101599.81;5036423;28;20521;-81
2023/04/10 06:27:15;;;;;;;37.92;21.52;;;;;;;5.22;98.82;101602.56;5052317;28;20104;-80
2023/04/10 06:29:41;;;;;;;39.72;22.48;;;;;;;5.26;98.58;101592.28;5053469;28;20135;-80
2023/04/10 06:32:07;;;;;;;35.72;21.08;;;;;;;5.34;98.57;101595.09;5056451;28;20033;-81
2023/04/10 06:34:34;;;;;;;33.40;20.77;;;;;;;5.43;97.90;101592.75;5056750;28;20044;-80
2023/04/10 06:37:00;;;;;;;27.85;18.90;;;;;;;5.53;97.46;101587.81;5056822;28;20096;-81
2023/04/10 06:39:27;;;;;;;36.30;19.35;;;;;;;5.69;96.54;101587.38;5039146;28;20037;-80
2023/04/10 06:41:55;;;;;;;34.60;20.50;;;;;;;5.93;95.69;101588.84;5023138;28;20040;-80
2023/04/10 06:44:21;;;;;;;31.40;19.40;;;;;;;6.25;95.41;101587.06;5056745;28;20045;-80
2023/04/10 06:46:47;;;;;;;32.28;19.65;;;;;;;6.61;92.72;101582.69;5056816;28;20045;-80
2023/04/10 06:49:14;;;;;;;32.47;20.02;;;;;;;7.03;92.56;101586.19;5056703;28;20119;-80
2023/04/10 06:51:40;;;;;;;29.50;18.30;;;;;;;7.49;90.31;101583.63;5055987;28;20115;-80
2023/04/10 06:54:07;;;;;;;28.80;18.83;;;;;;;7.81;88.16;101578.09;5056584;28;20067;-80
2023/04/10 06:56:33;;;;;;;33.45;19.65;;;;;;;8.12;86.11;101582.06;5055893;28;20037;-80
2023/04/10 06:59:00;;;;;;;29.98;18.02;;;;;;;8.37;83.36;101579.84;5045504;28;20108;-80
2023/04/10 07:01:26;;;;;;;27.48;18.17;;;;;;;8.70;82.38;101574.28;5057127;28;20041;-80
2023/04/10 07:03:53;;;;;;;32.17;19.02;;;;;;;8.84;80.82;101568.34;5072892;28;20040;-79
2023/04/10 07:06:19;;;;;;;28.48;19.23;;;;;;;9.16;80.70;101566.16;5072431;28;20033;-80
2023/04/10 07:08:46;;;;;;;30.58;17.98;;;;;;;9.40;78.55;101565.56;5056456;28;20079;-80
2023/04/10 07:11:12;;;;;;;26.98;16.85;;;;;;;9.64;77.82;101564.03;5055867;28;20048;-80
2023/04/10 07:13:41;;;;;;;25.88;17.45;;;;;;;9.83;76.81;101562.47;5039588;28;20045;-80
2023/04/10 07:16:08;;;;;;;26.35;18.02;;;;;;;10.18;74.92;101555.75;5057315;28;20041;-80
2023/04/10 07:18:37;;;;;;;28.98;18.95;;;;;;;10.59;73.52;101557.81;5055149;28;20072;-79
2023/04/10 07:21:11;;;;;;;20.42;15.25;;;;;;;11.01;71.63;101555.38;5035005;28;20391;-79
2023/04/10 07:23:38;;;;;;;22.95;16.35;;;;;;;11.23;70.12;101549.31;5036441;28;20052;-80
2023/04/10 07:26:05;;;;;;;21.67;15.93;;;;;;;11.67;68.18;101552.06;5052756;28;20037;-80
2023/04/10 07:28:32;;;;;;;22.65;16.50;;;;;;;11.83;67.00;101543.28;5035572;28;20042;-80
2023/04/10 07:30:59;;;;;;;20.17;14.98;;;;;;;12.02;66.74;101544.22;5052251;28;20037;-79
2023/04/10 07:33:25;;;;;;;22.60;16.23;;;;;;;12.14;64.34;101534.59;5035201;28;20044;-81
2023/04/10 07:35:52;;;;;;;21.67;15.80;;;;;;;12.36;64.55;101538.06;5035647;28;20097;-81
2023/04/10 07:38:19;;;;;;;21.77;15.65;;;;;;;12.71;64.25;101535.31;5035138;28;20037;-81
2023/04/10 07:40:46;;;;;;;19.20;14.50;;;;;;;13.14;62.29;101538.63;5052470;28;20099;-81
2023/04/10 07:43:13;;;;;;;18.83;14.20;;;;;;;13.32;60.14;101527.13;5019515;28;20497;-82
2023/04/10 07:45:39;;;;;;;18.30;13.98;;;;;;;13.72;60.44;101532.13;5036311;28;20045;-79
2023/04/10 07:48:06;;;;;;;19.35;13.27;;;;;;;14.23;57.14;101527.25;5036116;28;20424;-80
2023/04/10 07:50:33;;;;;;;16.10;12.93;;;;;;;14.83;56.52;101520.47;5052259;28;20089;-80
2023/04/10 07:53:02;;;;;;;16.30;13.23;;;;;;;15.19;55.21;101523.53;5019792;28;20340;-80
2023/04/10 07:55:28;;;;;;;17.48;14.45;;;;;;;15.47;52.72;101522.22;5051075;28;20156;-80
2023/04/10 07:57:55;;;;;;;18.98;14.05;;;;;;;15.64;53.06;101520.19;5052250;28;20037;-81
2023/04/10 08:00:22;;;;;;;17.92;13.32;;;;;;;15.63;51.66;101520.22;5051432;28;20045;-84
2023/04/10 08:02:48;;;;;;;16.95;13.20;;;;;;;15.93;49.53;101518.88;5051972;28;20037;-80
2023/04/10 08:05:14;;;;;;;14.68;12.27;;;;;;;16.19;49.62;101509.59;5051494;28;20049;-80
2023/04/10 08:07:41;;;;;;;14.88;12.38;;;;;;;16.47;48.59;101506.44;5051845;28;20037;-80
2023/04/10 08:10:08;;;;;;;14.32;12.65;;;;;;;17.11;45.69;101506.88;5051717;28;20049;-80
2023/04/10 08:12:34;;;;;;;15.93;13.30;;;;;;;17.41;44.70;101507.06;5035687;28;20041;-80
2023/04/10 08:15:01;;;;;;;15.48;12.13;;;;;;;17.93;44.82;101507.56;5051048;28;20049;-80
2023/04/10 08:17:27;;;;;;;13.30;11.52;;;;;;;18.35;42.46;101499.41;5054174;28;20099;-79
2023/04/10 08:19:54;;;;;;;13.05;11.65;;;;;;;18.55;40.60;101494.41;5034549;28;20495;-81
2023/04/10 08:22:20;;;;;;;12.60;11.20;;;;;;;18.83;41.60;101494.47;5050870;28;20387;-80
2023/04/10 08:24:47;;;;;;;13.93;12.48;;;;;;;18.64;39.39;101495.03;5050727;28;20372;-80
2023/04/10 08:27:15;;;;;;;15.88;12.35;;;;;;;18.20;41.16;101489.22;5050695;28;20121;-79
2023/04/10 08:29:42;;;;;;;13.73;11.73;;;;;;;18.60;40.73;101484.56;5051080;28;20033;-80
2023/04/10 08:32:08;;;;;;;14.75;12.40;;;;;;;19.20;39.71;101484.53;5051685;28;20044;-80
2023/04/10 08:34:35;;;;;;;12.73;10.75;;;;;;;19.34;38.12;101483.16;5043878;28;20048;-81
2023/04/10 08:37:21;;;;;;;13.75;12.38;;;;;;;19.34;37.75;101482.31;5052407;28;20044;-80
2023/04/10 08:40:06;;;;;;;12.38;11.13;;;;;;;19.76;37.71;101478.28;5033297;28;20046;-87
2023/04/10 08:42:32;;;;;;;13.10;11.30;;;;;;;20.24;37.03;101479.28;5045259;28;20141;-89
2023/04/10 08:44:59;;;;;;;12.48;11.18;;;;;;;21.03;35.08;101471.00;5032148;28;20109;-87
2023/04/10 08:47:31;;;;;;;14.45;11.93;;;;;;;21.27;34.22;101464.69;5013511;28;20053;-87
2023/04/10 08:50:02;;;;;;;11.35;10.20;;;;;;;21.00;34.97;101464.00;5029374;28;20048;-86
2023/04/10 08:52:31;;;;;;;14.52;12.50;;;;;;;20.70;34.84;101466.09;5033322;28;20046;-87
2023/04/10 08:55:01;;;;;;;12.70;11.40;;;;;;;20.44;34.77;101468.78;5017888;28;20057;-87
2023/04/10 08:57:29;;;;;;;12.65;11.35;;;;;;;21.10;34.99;101462.72;5030615;28;20053;-90
2023/04/10 08:59:57;;;;;;;13.18;11.63;;;;;;;21.60;34.14;101452.72;5030710;28;20172;-89
2023/04/10 09:02:24;;;;;;;12.82;11.52;;;;;;;22.26;32.46;101456.97;5013993;28;20053;-88
2023/04/10 09:04:54;;;;;;;11.90;10.73;;;;;;;21.86;32.65;101459.59;5031512;28;20045;-87
2023/04/10 09:07:21;;;;;;;11.68;10.55;;;;;;;21.95;32.37;101447.66;5029059;28;20325;-87
2023/04/10 09:09:48;;;;;;;11.80;10.55;;;;;;;22.60;31.79;101448.28;5023738;28;20054;-90
2023/04/10 09:12:16;;;;;;;10.82;9.70;;;;;;;22.37;31.30;101449.38;5026050;28;20053;-88
2023/04/10 09:14:43;;;;;;;11.02;9.32;;;;;;;21.88;31.01;101438.22;5012551;28;20644;-88
2023/04/10 09:17:18;;;;;;;10.80;9.70;;;;;;;22.04;31.48;101436.59;5031716;28;20428;-89
2023/04/10 09:19:53;;;;;;;11.15;10.10;;;;;;;21.89;31.38;101427.50;5047892;28;20091;-87
2023/04/10 09:22:32;;;;;;;11.63;10.43;;;;;;;22.14;31.17;101424.59;5025838;28;20041;-86
2023/04/10 09:25:00;;;;;;;11.68;10.57;;;;;;;22.16;31.41;101418.31;5025369;28;20041;-86
2023/04/10 09:27:36;;;;;;;11.93;10.70;;;;;;;22.83;30.83;101413.44;5010026;28;20057;-85
2023/04/10 09:30:03;;;;;;;11.00;9.90;;;;;;;23.12;29.23;101396.84;5009490;28;20056;-86
2023/04/10 09:32:46;;;;;;;11.10;10.10;;;;;;;23.50;28.80;101395.03;5023266;28;20148;-86
2023/04/10 09:35:17;;;;;;;10.27;9.25;;;;;;;23.66;28.72;101387.94;5024717;28;20041;-86
2023/04/10 09:37:46;;;;;;;11.82;10.63;;;;;;;23.44;29.02;101383.72;5009628;28;20041;-85
2023/04/10 09:40:24;;;;;;;11.30;10.10;;;;;;;23.07;29.77;101377.53;4994255;28;20037;-86
2023/04/10 09:42:51;;;;;;;12.10;10.90;;;;;;;23.47;28.32;101374.69;4996206;28;20038;-85
2023/04/10 09:45:19;;;;;;;11.27;10.18;;;;;;;23.05;29.24;101350.06;5005638;28;20489;-86
2023/04/10 09:48:07;;;;;;;11.52;10.40;;;;;;;22.67;29.39;101366.16;5009570;28;20128;-85
2023/04/10 09:50:39;;;;;;;12.25;9.98;;;;;;;22.71;28.91;101358.84;5020002;28;20049;-86
2023/04/10 09:53:07;;;;;;;11.13;10.13;;;;;;;23.07;28.44;101352.63;5002445;28;20090;-86
2023/04/10 09:55:35;;;;;;;9.48;8.57;;;;;;;22.88;28.23;101350.91;4990921;28;20050;-87
2023/04/10 09:58:04;;;;;;;10.57;9.57;;;;;;;23.03;28.47;101351.06;4973169;28;20051;-85
2023/04/10 10:00:39;;;;;;;11.07;9.88;;;;;;;23.33;28.04;101337.13;5000441;28;20093;-86
2023/04/10 10:03:10;;;;;;;9.65;8.75;;;;;;;23.82;27.76;101336.31;5004134;28;20053;-85
2023/04/10 10:05:40;;;;;;;10.75;9.75;;;;;;;23.87;27.04;101336.94;5001751;28;20069;-83
2023/04/10 10:08:09;;;;;;;10.25;9.30;;;;;;;24.31;27.22;101339.00;4987908;28;20041;-86
2023/04/10 10:10:51;;;;;;;10.88;9.88;;;;;;;24.04;26.69;101330.69;5011745;28;20119;-83
2023/04/10 10:13:28;;;;;;;10.48;9.38;;;;;;;23.56;27.25;101312.72;5017585;28;20588;-83
2023/04/10 10:16:54;;;;;;;10.60;9.50;;;;;;;24.24;26.61;101314.41;4993944;28;20045;-84
2023/04/10 10:19:42;;;;;;;10.73;9.63;;;;;;;24.11;26.92;101318.72;5028621;28;20052;-84
2023/04/10 10:22:10;;;;;;;9.73;8.73;;;;;;;24.40;26.91;101302.84;5001439;28;20520;-85
2023/04/10 10:24:40;;;;;;;8.85;8.05;;;;;;;24.76;25.29;101299.03;4997732;28;20045;-85
2023/04/10 10:27:09;;;;;;;7.93;7.22;;;;;;;25.02;24.42;101291.28;5023946;28;20045;-85
2023/04/10 10:29:38;;;;;;;8.20;7.40;;;;;;;25.19;24.87;101288.44;4986866;28;20054;-85
2023/04/10 10:32:06;;;;;;;7.95;7.15;;;;;;;24.96;24.19;101283.59;4990251;28;20041;-85
2023/04/10 10:34:33;;;;;;;8.30;7.50;;;;;;;25.17;24.14;101284.13;5011301;28;20060;-85
2023/04/10 10:37:00;;;;;;;9.00;8.20;;;;;;;25.28;24.24;101281.66;5004929;28;20060;-85
2023/04/10 10:40:00;;;;;;;8.10;7.50;;;;;;;26.10;22.78;101268.56;4983977;28;20515;-86
2023/04/10 10:42:53;;;;;;;7.60;6.85;;;;;;;25.80;22.87;101265.97;5005164;28;20073;-86
2023/04/10 10:45:41;;;;;;;7.57;6.78;;;;;;;26.31;21.86;101255.56;5002375;28;20118;-86
2023/04/10 10:48:08;;;;;;;7.93;7.22;;;;;;;27.01;22.23;101250.91;4987260;28;20030;-87
2023/04/10 10:50:56;;;;;;;8.00;7.20;;;;;;;27.46;21.28;101250.53;4992847;28;20066;-86
2023/04/10 10:53:45;;;;;;;7.97;7.25;;;;;;;28.08;20.90;101243.41;4981988;28;20042;-87
2023/04/10 10:56:25;;;;;;;7.80;7.10;;;;;;;27.33;20.90;101237.91;4979389;28;20041;-86
2023/04/10 10:59:02;;;;;;;6.80;6.25;;;;;;;26.71;21.58;101236.78;5007410;28;20038;-87
2023/04/10 11:01:28;;;;;;;8.95;8.05;;;;;;;26.17;22.83;101228.78;5003486;28;20064;-87
2023/04/10 11:03:55;;;;;;;7.68;6.95;;;;;;;26.63;22.36;101224.84;4992821;28;20046;-87
2023/04/10 11:06:50;;;;;;;8.30;7.47;;;;;;;26.84;22.32;101220.72;4989680;28;20133;-87
2023/04/10 11:09:52;;;;;;;8.05;7.43;;;;;;;27.36;21.83;101209.97;4973202;28;20113;-88
2023/04/10 11:12:24;;;;;;;9.25;8.30;;;;;;;26.28;22.70;101220.00;5011427;28;20721;-87
2023/04/10 11:15:03;;;;;;;8.65;7.95;;;;;;;25.68;23.46;101205.94;4965088;28;20097;-87
2023/04/10 11:17:50;;;;;;;7.40;6.80;;;;;;;26.65;22.78;101196.03;4996571;28;20488;-87
2023/04/10 11:20:19;;;;;;;8.10;7.40;;;;;;;27.35;21.35;101181.34;4982791;28;20056;-87
2023/04/10 11:23:12;;;;;;;7.57;6.88;;;;;;;26.85;21.78;101190.19;5010870;28;20080;-87